sensor_id;sensor_type;location;lat;lon;timestamp;P1;durP1;ratioP1;P2;durP2;ratioP2
16139;SDS011;8175;49.326;12.690;2022-08-18T00:01:16;3.33;;;3.13;;
16139;SDS011;8175;49.326;12.690;2022-08-18T00:03:43;4.20;;;3.70;;
16139;SDS011;8175;49.326;12.690;2022-08-18T00:06:09;4.73;;;2.90;;
16139;SDS011;8175;49.326;12.690;2022-08-18T00:08:34;3.33;;;3.03;;
16139;SDS011;8175;49.326;12.690;2022-08-18T00:11:00;3.37;;;3.10;;
16139;SDS011;8175;49.326;12.690;2022-08-18T00:13:26;3.57;;;2.93;;
16139;SDS011;8175;49.326;12.690;2022-08-18T00:15:51;3.30;;;3.00;;
16139;SDS011;8175;49.326;12.690;2022-08-18T00:18:17;3.30;;;3.10;;
16139;SDS011;8175;49.326;12.690;2022-08-18T00:20:43;3.63;;;3.30;;
16139;SDS011;8175;49.326;12.690;2022-08-18T00:23:09;4.30;;;3.70;;
16139;SDS011;8175;49.326;12.690;2022-08-18T00:25:34;4.17;;;3.87;;
16139;SDS011;8175;49.326;12.690;2022-08-18T00:28:00;4.23;;;3.83;;
16139;SDS011;8175;49.326;12.690;2022-08-18T00:30:26;4.63;;;4.23;;
16139;SDS011;8175;49.326;12.690;2022-08-18T00:32:53;4.60;;;4.20;;
16139;SDS011;8175;49.326;12.690;2022-08-18T00:35:24;4.73;;;4.30;;
16139;SDS011;8175;49.326;12.690;2022-08-18T00:37:53;4.60;;;4.20;;
16139;SDS011;8175;49.326;12.690;2022-08-18T00:40:22;5.03;;;3.80;;
16139;SDS011;8175;49.326;12.690;2022-08-18T00:42:55;4.43;;;4.13;;
16139;SDS011;8175;49.326;12.690;2022-08-18T00:45:25;4.80;;;4.40;;
16139;SDS011;8175;49.326;12.690;2022-08-18T00:47:53;5.63;;;4.13;;
16139;SDS011;8175;49.326;12.690;2022-08-18T00:50:41;4.37;;;3.90;;
16139;SDS011;8175;49.326;12.690;2022-08-18T00:53:32;4.67;;;4.27;;
16139;SDS011;8175;49.326;12.690;2022-08-18T00:56:07;4.40;;;4.10;;
16139;SDS011;8175;49.326;12.690;2022-08-18T00:58:40;4.37;;;3.97;;
16139;SDS011;8175;49.326;12.690;2022-08-18T01:01:18;4.10;;;3.80;;
16139;SDS011;8175;49.326;12.690;2022-08-18T01:03:51;4.07;;;3.77;;
16139;SDS011;8175;49.326;12.690;2022-08-18T01:06:25;3.90;;;3.60;;
16139;SDS011;8175;49.326;12.690;2022-08-18T01:08:58;5.77;;;4.63;;
16139;SDS011;8175;49.326;12.690;2022-08-18T01:11:25;4.40;;;4.00;;
16139;SDS011;8175;49.326;12.690;2022-08-18T01:13:51;4.27;;;3.87;;
16139;SDS011;8175;49.326;12.690;2022-08-18T01:16:18;3.83;;;3.53;;
16139;SDS011;8175;49.326;12.690;2022-08-18T01:19:02;4.23;;;3.83;;
16139;SDS011;8175;49.326;12.690;2022-08-18T01:21:48;4.70;;;4.17;;
16139;SDS011;8175;49.326;12.690;2022-08-18T01:24:17;4.10;;;3.77;;
16139;SDS011;8175;49.326;12.690;2022-08-18T01:26:44;5.03;;;4.53;;
16139;SDS011;8175;49.326;12.690;2022-08-18T01:29:15;4.27;;;3.93;;
16139;SDS011;8175;49.326;12.690;2022-08-18T01:31:49;3.90;;;3.60;;
16139;SDS011;8175;49.326;12.690;2022-08-18T01:34:20;4.00;;;3.60;;
16139;SDS011;8175;49.326;12.690;2022-08-18T01:36:48;3.87;;;3.57;;
16139;SDS011;8175;49.326;12.690;2022-08-18T01:39:16;3.90;;;3.60;;
16139;SDS011;8175;49.326;12.690;2022-08-18T01:41:43;4.70;;;4.30;;
16139;SDS011;8175;49.326;12.690;2022-08-18T01:44:09;4.23;;;3.83;;
16139;SDS011;8175;49.326;12.690;2022-08-18T01:46:36;4.80;;;4.17;;
16139;SDS011;8175;49.326;12.690;2022-08-18T01:49:03;4.60;;;4.20;;
16139;SDS011;8175;49.326;12.690;2022-08-18T01:51:30;4.17;;;3.77;;
16139;SDS011;8175;49.326;12.690;2022-08-18T01:53:57;5.30;;;4.03;;
16139;SDS011;8175;49.326;12.690;2022-08-18T01:56:23;6.57;;;4.60;;
16139;SDS011;8175;49.326;12.690;2022-08-18T01:58:51;4.67;;;4.17;;
16139;SDS011;8175;49.326;12.690;2022-08-18T02:01:18;4.17;;;3.77;;
16139;SDS011;8175;49.326;12.690;2022-08-18T02:03:47;4.20;;;3.77;;
16139;SDS011;8175;49.326;12.690;2022-08-18T02:06:15;5.47;;;4.60;;
16139;SDS011;8175;49.326;12.690;2022-08-18T02:08:43;4.97;;;4.50;;
16139;SDS011;8175;49.326;12.690;2022-08-18T02:11:09;4.67;;;4.27;;
16139;SDS011;8175;49.326;12.690;2022-08-18T02:13:35;4.70;;;4.23;;
16139;SDS011;8175;49.326;12.690;2022-08-18T02:16:01;4.70;;;4.20;;
16139;SDS011;8175;49.326;12.690;2022-08-18T02:18:29;6.30;;;5.13;;
16139;SDS011;8175;49.326;12.690;2022-08-18T02:20:57;5.20;;;4.33;;
16139;SDS011;8175;49.326;12.690;2022-08-18T02:23:33;5.10;;;4.53;;
16139;SDS011;8175;49.326;12.690;2022-08-18T02:26:02;5.00;;;4.50;;
16139;SDS011;8175;49.326;12.690;2022-08-18T02:28:32;5.87;;;4.63;;
16139;SDS011;8175;49.326;12.690;2022-08-18T02:31:05;5.10;;;4.60;;
16139;SDS011;8175;49.326;12.690;2022-08-18T02:33:32;4.83;;;4.43;;
16139;SDS011;8175;49.326;12.690;2022-08-18T02:35:58;5.50;;;4.70;;
16139;SDS011;8175;49.326;12.690;2022-08-18T02:38:24;5.17;;;4.67;;
16139;SDS011;8175;49.326;12.690;2022-08-18T02:40:53;4.53;;;4.23;;
16139;SDS011;8175;49.326;12.690;2022-08-18T02:43:24;5.27;;;4.77;;
16139;SDS011;8175;49.326;12.690;2022-08-18T02:45:50;5.70;;;5.07;;
16139;SDS011;8175;49.326;12.690;2022-08-18T02:48:16;5.87;;;5.00;;
16139;SDS011;8175;49.326;12.690;2022-08-18T02:50:50;5.67;;;5.27;;
16139;SDS011;8175;49.326;12.690;2022-08-18T02:53:23;5.33;;;4.90;;
16139;SDS011;8175;49.326;12.690;2022-08-18T02:55:49;4.70;;;4.30;;
16139;SDS011;8175;49.326;12.690;2022-08-18T02:58:15;5.37;;;4.67;;
16139;SDS011;8175;49.326;12.690;2022-08-18T03:00:40;5.47;;;5.00;;
16139;SDS011;8175;49.326;12.690;2022-08-18T03:03:07;4.90;;;4.50;;
16139;SDS011;8175;49.326;12.690;2022-08-18T03:05:33;5.37;;;4.87;;
16139;SDS011;8175;49.326;12.690;2022-08-18T03:07:58;5.07;;;4.67;;
16139;SDS011;8175;49.326;12.690;2022-08-18T03:10:24;4.80;;;4.43;;
16139;SDS011;8175;49.326;12.690;2022-08-18T03:12:50;5.50;;;5.00;;
16139;SDS011;8175;49.326;12.690;2022-08-18T03:15:17;5.60;;;4.93;;
16139;SDS011;8175;49.326;12.690;2022-08-18T03:17:42;5.17;;;4.60;;
16139;SDS011;8175;49.326;12.690;2022-08-18T03:20:08;5.40;;;4.90;;
16139;SDS011;8175;49.326;12.690;2022-08-18T03:22:35;5.27;;;4.77;;
16139;SDS011;8175;49.326;12.690;2022-08-18T03:25:02;5.13;;;4.63;;
16139;SDS011;8175;49.326;12.690;2022-08-18T03:27:28;5.33;;;4.83;;
16139;SDS011;8175;49.326;12.690;2022-08-18T03:29:54;4.87;;;4.47;;
16139;SDS011;8175;49.326;12.690;2022-08-18T03:32:20;5.13;;;4.63;;
16139;SDS011;8175;49.326;12.690;2022-08-18T03:34:46;5.07;;;4.67;;
16139;SDS011;8175;49.326;12.690;2022-08-18T03:37:12;5.30;;;4.70;;
16139;SDS011;8175;49.326;12.690;2022-08-18T03:39:39;6.57;;;5.87;;
16139;SDS011;8175;49.326;12.690;2022-08-18T03:42:05;6.33;;;5.70;;
16139;SDS011;8175;49.326;12.690;2022-08-18T03:44:33;6.47;;;5.53;;
16139;SDS011;8175;49.326;12.690;2022-08-18T03:47:02;7.93;;;5.37;;
16139;SDS011;8175;49.326;12.690;2022-08-18T03:49:32;6.90;;;6.07;;
16139;SDS011;8175;49.326;12.690;2022-08-18T03:51:58;8.83;;;6.40;;
16139;SDS011;8175;49.326;12.690;2022-08-18T03:54:27;6.60;;;5.90;;
16139;SDS011;8175;49.326;12.690;2022-08-18T03:56:53;6.20;;;5.60;;
16139;SDS011;8175;49.326;12.690;2022-08-18T03:59:21;7.20;;;5.67;;
16139;SDS011;8175;49.326;12.690;2022-08-18T04:01:48;6.67;;;5.97;;
16139;SDS011;8175;49.326;12.690;2022-08-18T04:04:20;7.60;;;6.23;;
16139;SDS011;8175;49.326;12.690;2022-08-18T04:06:55;7.33;;;6.50;;
16139;SDS011;8175;49.326;12.690;2022-08-18T04:09:29;6.67;;;6.00;;
16139;SDS011;8175;49.326;12.690;2022-08-18T04:11:57;7.17;;;6.47;;
16139;SDS011;8175;49.326;12.690;2022-08-18T04:14:26;7.67;;;6.20;;
16139;SDS011;8175;49.326;12.690;2022-08-18T04:16:56;6.60;;;5.93;;
16139;SDS011;8175;49.326;12.690;2022-08-18T04:19:22;7.20;;;6.27;;
16139;SDS011;8175;49.326;12.690;2022-08-18T04:21:50;6.80;;;6.10;;
16139;SDS011;8175;49.326;12.690;2022-08-18T04:24:16;7.20;;;6.30;;
16139;SDS011;8175;49.326;12.690;2022-08-18T04:26:44;10.80;;;6.60;;
16139;SDS011;8175;49.326;12.690;2022-08-18T04:29:11;7.90;;;6.47;;
16139;SDS011;8175;49.326;12.690;2022-08-18T04:31:39;6.47;;;5.87;;
16139;SDS011;8175;49.326;12.690;2022-08-18T04:34:05;9.07;;;6.43;;
16139;SDS011;8175;49.326;12.690;2022-08-18T04:36:31;8.37;;;6.57;;
16139;SDS011;8175;49.326;12.690;2022-08-18T04:38:58;10.23;;;6.67;;
16139;SDS011;8175;49.326;12.690;2022-08-18T04:41:25;6.30;;;5.77;;
16139;SDS011;8175;49.326;12.690;2022-08-18T04:43:55;6.80;;;6.20;;
16139;SDS011;8175;49.326;12.690;2022-08-18T04:46:22;6.77;;;6.17;;
16139;SDS011;8175;49.326;12.690;2022-08-18T04:48:49;7.67;;;6.97;;
16139;SDS011;8175;49.326;12.690;2022-08-18T04:51:17;7.13;;;6.37;;
16139;SDS011;8175;49.326;12.690;2022-08-18T04:53:44;6.50;;;5.90;;
16139;SDS011;8175;49.326;12.690;2022-08-18T04:58:51;7.23;;;5.80;;
16139;SDS011;8175;49.326;12.690;2022-08-18T05:01:24;6.37;;;5.70;;
16139;SDS011;8175;49.326;12.690;2022-08-18T05:03:52;9.13;;;6.07;;
16139;SDS011;8175;49.326;12.690;2022-08-18T05:06:19;7.37;;;6.53;;
16139;SDS011;8175;49.326;12.690;2022-08-18T05:08:49;7.47;;;6.10;;
16139;SDS011;8175;49.326;12.690;2022-08-18T05:11:17;5.67;;;5.17;;
16139;SDS011;8175;49.326;12.690;2022-08-18T05:13:43;6.60;;;5.40;;
16139;SDS011;8175;49.326;12.690;2022-08-18T05:16:08;6.73;;;5.10;;
16139;SDS011;8175;49.326;12.690;2022-08-18T05:18:34;6.23;;;5.63;;
16139;SDS011;8175;49.326;12.690;2022-08-18T05:21:05;6.67;;;5.30;;
16139;SDS011;8175;49.326;12.690;2022-08-18T05:23:40;6.90;;;5.23;;
16139;SDS011;8175;49.326;12.690;2022-08-18T05:26:07;6.57;;;5.50;;
16139;SDS011;8175;49.326;12.690;2022-08-18T05:28:34;6.67;;;5.13;;
16139;SDS011;8175;49.326;12.690;2022-08-18T05:31:08;6.43;;;5.90;;
16139;SDS011;8175;49.326;12.690;2022-08-18T05:33:36;6.53;;;5.73;;
16139;SDS011;8175;49.326;12.690;2022-08-18T05:36:09;6.47;;;5.70;;
16139;SDS011;8175;49.326;12.690;2022-08-18T05:41:39;6.00;;;5.13;;
16139;SDS011;8175;49.326;12.690;2022-08-18T05:44:08;7.03;;;5.53;;
16139;SDS011;8175;49.326;12.690;2022-08-18T05:46:42;5.70;;;5.20;;
16139;SDS011;8175;49.326;12.690;2022-08-18T05:49:18;5.80;;;4.93;;
16139;SDS011;8175;49.326;12.690;2022-08-18T05:51:46;7.27;;;5.50;;
16139;SDS011;8175;49.326;12.690;2022-08-18T05:54:16;5.77;;;5.13;;
16139;SDS011;8175;49.326;12.690;2022-08-18T05:57:04;6.03;;;4.90;;
16139;SDS011;8175;49.326;12.690;2022-08-18T05:59:36;5.37;;;4.87;;
16139;SDS011;8175;49.326;12.690;2022-08-18T06:04:52;6.47;;;5.10;;
16139;SDS011;8175;49.326;12.690;2022-08-18T06:10:06;5.83;;;5.27;;
16139;SDS011;8175;49.326;12.690;2022-08-18T06:12:40;5.60;;;4.80;;
16139;SDS011;8175;49.326;12.690;2022-08-18T06:28:08;5.40;;;4.90;;
16139;SDS011;8175;49.326;12.690;2022-08-18T06:35:48;5.50;;;5.10;;
16139;SDS011;8175;49.326;12.690;2022-08-18T06:41:12;5.93;;;5.33;;
16139;SDS011;8175;49.326;12.690;2022-08-18T06:46:40;6.20;;;5.50;;
16139;SDS011;8175;49.326;12.690;2022-08-18T06:49:55;5.78;;;5.22;;
16139;SDS011;8175;49.326;12.690;2022-08-18T06:52:24;5.95;;;5.45;;
16139;SDS011;8175;49.326;12.690;2022-08-18T06:54:56;6.47;;;4.95;;
16139;SDS011;8175;49.326;12.690;2022-08-18T06:57:34;7.53;;;5.20;;
16139;SDS011;8175;49.326;12.690;2022-08-18T07:05:34;6.57;;;5.57;;
16139;SDS011;8175;49.326;12.690;2022-08-18T07:08:05;7.13;;;5.85;;
16139;SDS011;8175;49.326;12.690;2022-08-18T07:10:46;5.75;;;5.05;;
16139;SDS011;8175;49.326;12.690;2022-08-18T07:13:15;5.50;;;5.00;;
16139;SDS011;8175;49.326;12.690;2022-08-18T07:15:52;9.55;;;5.45;;
16139;SDS011;8175;49.326;12.690;2022-08-18T07:18:26;6.00;;;5.40;;
16139;SDS011;8175;49.326;12.690;2022-08-18T07:20:57;6.32;;;5.82;;
16139;SDS011;8175;49.326;12.690;2022-08-18T07:26:14;6.63;;;5.35;;
16139;SDS011;8175;49.326;12.690;2022-08-18T07:28:42;5.32;;;4.82;;
16139;SDS011;8175;49.326;12.690;2022-08-18T07:31:19;5.97;;;5.40;;
16139;SDS011;8175;49.326;12.690;2022-08-18T07:33:50;6.63;;;5.75;;
16139;SDS011;8175;49.326;12.690;2022-08-18T07:36:22;5.93;;;5.38;;
16139;SDS011;8175;49.326;12.690;2022-08-18T07:38:52;5.80;;;5.30;;
16139;SDS011;8175;49.326;12.690;2022-08-18T07:41:29;5.70;;;5.20;;
16139;SDS011;8175;49.326;12.690;2022-08-18T07:47:03;5.75;;;4.90;;
16139;SDS011;8175;49.326;12.690;2022-08-18T07:49:35;5.93;;;5.32;;
16139;SDS011;8175;49.326;12.690;2022-08-18T07:54:42;5.47;;;5.07;;
16139;SDS011;8175;49.326;12.690;2022-08-18T07:57:20;6.10;;;5.25;;
16139;SDS011;8175;49.326;12.690;2022-08-18T08:13:22;9.82;;;5.22;;
16139;SDS011;8175;49.326;12.690;2022-08-18T08:16:02;6.95;;;5.28;;
16139;SDS011;8175;49.326;12.690;2022-08-18T08:21:09;5.43;;;4.93;;
16139;SDS011;8175;49.326;12.690;2022-08-18T08:23:43;5.78;;;5.18;;
16139;SDS011;8175;49.326;12.690;2022-08-18T08:31:49;5.43;;;5.00;;
16139;SDS011;8175;49.326;12.690;2022-08-18T08:34:44;5.93;;;5.43;;
16139;SDS011;8175;49.326;12.690;2022-08-18T08:37:23;5.38;;;4.90;;
16139;SDS011;8175;49.326;12.690;2022-08-18T08:40:03;5.28;;;4.88;;
16139;SDS011;8175;49.326;12.690;2022-08-18T08:45:22;6.03;;;5.43;;
16139;SDS011;8175;49.326;12.690;2022-08-18T08:48:20;5.72;;;5.28;;
16139;SDS011;8175;49.326;12.690;2022-08-18T08:51:05;6.25;;;5.13;;
16139;SDS011;8175;49.326;12.690;2022-08-18T08:53:52;6.25;;;5.45;;
16139;SDS011;8175;49.326;12.690;2022-08-18T08:56:25;5.18;;;4.68;;
16139;SDS011;8175;49.326;12.690;2022-08-18T08:58:59;5.65;;;4.53;;
16139;SDS011;8175;49.326;12.690;2022-08-18T09:12:27;5.47;;;4.47;;
16139;SDS011;8175;49.326;12.690;2022-08-18T09:21:52;4.70;;;4.05;;
16139;SDS011;8175;49.326;12.690;2022-08-18T09:23:54;4.85;;;4.45;;
16139;SDS011;8175;49.326;12.690;2022-08-18T09:26:51;4.53;;;3.60;;
16139;SDS011;8175;49.326;12.690;2022-08-18T09:29:50;5.35;;;4.82;;
16139;SDS011;8175;49.326;12.690;2022-08-18T09:37:28;3.75;;;3.47;;
16139;SDS011;8175;49.326;12.690;2022-08-18T09:40:13;4.00;;;3.70;;
16139;SDS011;8175;49.326;12.690;2022-08-18T09:43:14;4.03;;;3.72;;
16139;SDS011;8175;49.326;12.690;2022-08-18T09:46:07;3.10;;;2.88;;
16139;SDS011;8175;49.326;12.690;2022-08-18T09:51:20;4.05;;;3.65;;
16139;SDS011;8175;49.326;12.690;2022-08-18T09:54:10;4.43;;;3.67;;
16139;SDS011;8175;49.326;12.690;2022-08-18T10:01:57;3.88;;;3.58;;
16139;SDS011;8175;49.326;12.690;2022-08-18T10:04:28;4.10;;;3.70;;
16139;SDS011;8175;49.326;12.690;2022-08-18T10:15:23;3.28;;;3.03;;
16139;SDS011;8175;49.326;12.690;2022-08-18T10:23:02;3.60;;;3.33;;
16139;SDS011;8175;49.326;12.690;2022-08-18T10:25:38;3.67;;;3.38;;
16139;SDS011;8175;49.326;12.690;2022-08-18T10:28:11;3.85;;;3.55;;
16139;SDS011;8175;49.326;12.690;2022-08-18T10:31:13;3.60;;;3.30;;
16139;SDS011;8175;49.326;12.690;2022-08-18T10:36:34;3.70;;;3.38;;
16139;SDS011;8175;49.326;12.690;2022-08-18T10:39:09;4.20;;;3.47;;
16139;SDS011;8175;49.326;12.690;2022-08-18T10:42:05;3.45;;;3.03;;
16139;SDS011;8175;49.326;12.690;2022-08-18T10:44:51;3.50;;;3.30;;
16139;SDS011;8175;49.326;12.690;2022-08-18T10:47:25;3.15;;;2.95;;
16139;SDS011;8175;49.326;12.690;2022-08-18T10:49:54;3.33;;;3.10;;
16139;SDS011;8175;49.326;12.690;2022-08-18T10:55:14;3.92;;;3.58;;
16139;SDS011;8175;49.326;12.690;2022-08-18T11:03:39;3.90;;;3.60;;
16139;SDS011;8175;49.326;12.690;2022-08-18T11:06:19;3.63;;;3.33;;
16139;SDS011;8175;49.326;12.690;2022-08-18T11:08:49;3.88;;;3.58;;
16139;SDS011;8175;49.326;12.690;2022-08-18T11:11:24;4.20;;;3.85;;
16139;SDS011;8175;49.326;12.690;2022-08-18T11:19:20;4.13;;;3.83;;
16139;SDS011;8175;49.326;12.690;2022-08-18T11:21:47;4.10;;;3.80;;
16139;SDS011;8175;49.326;12.690;2022-08-18T11:31:55;3.97;;;3.60;;
16139;SDS011;8175;49.326;12.690;2022-08-18T11:34:34;3.88;;;3.53;;
16139;SDS011;8175;49.326;12.690;2022-08-18T11:37:01;4.15;;;3.65;;
16139;SDS011;8175;49.326;12.690;2022-08-18T11:39:30;4.72;;;3.70;;
16139;SDS011;8175;49.326;12.690;2022-08-18T11:41:56;6.47;;;4.45;;
16139;SDS011;8175;49.326;12.690;2022-08-18T11:44:23;4.15;;;3.75;;
16139;SDS011;8175;49.326;12.690;2022-08-18T11:46:55;4.50;;;4.20;;
16139;SDS011;8175;49.326;12.690;2022-08-18T11:49:49;3.80;;;3.50;;
16139;SDS011;8175;49.326;12.690;2022-08-18T11:52:25;4.30;;;3.90;;
16139;SDS011;8175;49.326;12.690;2022-08-18T11:54:57;4.05;;;3.75;;
16139;SDS011;8175;49.326;12.690;2022-08-18T11:57:41;3.70;;;3.40;;
16139;SDS011;8175;49.326;12.690;2022-08-18T12:03:18;4.05;;;3.75;;
16139;SDS011;8175;49.326;12.690;2022-08-18T12:05:57;4.50;;;3.70;;
16139;SDS011;8175;49.326;12.690;2022-08-18T12:08:32;4.05;;;3.75;;
16139;SDS011;8175;49.326;12.690;2022-08-18T12:11:23;4.22;;;3.92;;
16139;SDS011;8175;49.326;12.690;2022-08-18T12:14:03;3.90;;;3.50;;
16139;SDS011;8175;49.326;12.690;2022-08-18T12:16:42;4.15;;;3.85;;
16139;SDS011;8175;49.326;12.690;2022-08-18T12:19:09;4.40;;;4.07;;
16139;SDS011;8175;49.326;12.690;2022-08-18T12:21:40;3.75;;;3.53;;
16139;SDS011;8175;49.326;12.690;2022-08-18T12:24:18;4.57;;;4.00;;
16139;SDS011;8175;49.326;12.690;2022-08-18T12:26:47;4.93;;;4.53;;
16139;SDS011;8175;49.326;12.690;2022-08-18T12:29:13;4.60;;;4.20;;
16139;SDS011;8175;49.326;12.690;2022-08-18T12:31:41;4.50;;;4.20;;
16139;SDS011;8175;49.326;12.690;2022-08-18T12:34:07;5.47;;;3.97;;
16139;SDS011;8175;49.326;12.690;2022-08-18T12:36:33;4.10;;;3.75;;
16139;SDS011;8175;49.326;12.690;2022-08-18T12:38:59;4.53;;;4.13;;
16139;SDS011;8175;49.326;12.690;2022-08-18T12:41:24;4.00;;;3.65;;
16139;SDS011;8175;49.326;12.690;2022-08-18T12:43:50;3.92;;;3.63;;
16139;SDS011;8175;49.326;12.690;2022-08-18T12:46:17;3.63;;;3.33;;
16139;SDS011;8175;49.326;12.690;2022-08-18T12:48:44;3.83;;;3.63;;
16139;SDS011;8175;49.326;12.690;2022-08-18T12:51:09;3.97;;;3.70;;
16139;SDS011;8175;49.326;12.690;2022-08-18T12:53:37;4.10;;;3.80;;
16139;SDS011;8175;49.326;12.690;2022-08-18T12:56:11;4.40;;;4.00;;
16139;SDS011;8175;49.326;12.690;2022-08-18T12:58:40;3.88;;;3.58;;
16139;SDS011;8175;49.326;12.690;2022-08-18T13:01:06;4.20;;;3.80;;
16139;SDS011;8175;49.326;12.690;2022-08-18T13:03:31;4.20;;;3.90;;
16139;SDS011;8175;49.326;12.690;2022-08-18T13:05:57;3.97;;;3.75;;
16139;SDS011;8175;49.326;12.690;2022-08-18T13:08:23;3.60;;;3.40;;
16139;SDS011;8175;49.326;12.690;2022-08-18T13:10:49;3.85;;;3.55;;
16139;SDS011;8175;49.326;12.690;2022-08-18T13:13:15;4.00;;;3.70;;
16139;SDS011;8175;49.326;12.690;2022-08-18T13:15:43;4.03;;;3.72;;
16139;SDS011;8175;49.326;12.690;2022-08-18T13:18:10;4.20;;;3.78;;
16139;SDS011;8175;49.326;12.690;2022-08-18T13:20:36;4.00;;;3.70;;
16139;SDS011;8175;49.326;12.690;2022-08-18T13:23:02;3.88;;;3.50;;
16139;SDS011;8175;49.326;12.690;2022-08-18T13:25:28;3.92;;;3.63;;
16139;SDS011;8175;49.326;12.690;2022-08-18T13:27:53;3.67;;;3.38;;
16139;SDS011;8175;49.326;12.690;2022-08-18T13:30:20;3.67;;;3.47;;
16139;SDS011;8175;49.326;12.690;2022-08-18T13:32:47;3.67;;;3.47;;
16139;SDS011;8175;49.326;12.690;2022-08-18T13:35:12;3.95;;;3.63;;
16139;SDS011;8175;49.326;12.690;2022-08-18T13:37:39;3.97;;;3.67;;
16139;SDS011;8175;49.326;12.690;2022-08-18T13:40:06;4.38;;;3.90;;
16139;SDS011;8175;49.326;12.690;2022-08-18T13:42:43;3.60;;;3.35;;
16139;SDS011;8175;49.326;12.690;2022-08-18T13:45:13;4.05;;;3.75;;
16139;SDS011;8175;49.326;12.690;2022-08-18T13:47:41;4.15;;;3.75;;
16139;SDS011;8175;49.326;12.690;2022-08-18T13:50:08;4.45;;;3.72;;
16139;SDS011;8175;49.326;12.690;2022-08-18T13:52:35;4.25;;;3.60;;
16139;SDS011;8175;49.326;12.690;2022-08-18T13:55:03;3.67;;;3.40;;
16139;SDS011;8175;49.326;12.690;2022-08-18T13:57:31;3.13;;;2.92;;
16139;SDS011;8175;49.326;12.690;2022-08-18T13:59:57;3.60;;;3.40;;
16139;SDS011;8175;49.326;12.690;2022-08-18T14:02:22;3.85;;;3.55;;
16139;SDS011;8175;49.326;12.690;2022-08-18T14:04:48;4.13;;;3.72;;
16139;SDS011;8175;49.326;12.690;2022-08-18T14:07:14;4.10;;;3.30;;
16139;SDS011;8175;49.326;12.690;2022-08-18T14:09:41;3.70;;;3.40;;
16139;SDS011;8175;49.326;12.690;2022-08-18T14:12:08;3.70;;;3.33;;
16139;SDS011;8175;49.326;12.690;2022-08-18T14:14:44;4.00;;;3.65;;
16139;SDS011;8175;49.326;12.690;2022-08-18T14:17:09;3.60;;;3.30;;
16139;SDS011;8175;49.326;12.690;2022-08-18T14:19:35;3.60;;;3.40;;
16139;SDS011;8175;49.326;12.690;2022-08-18T14:22:19;4.28;;;3.58;;
16139;SDS011;8175;49.326;12.690;2022-08-18T14:25:03;4.32;;;3.45;;
16139;SDS011;8175;49.326;12.690;2022-08-18T14:27:48;4.82;;;3.65;;
16139;SDS011;8175;49.326;12.690;2022-08-18T14:30:14;4.55;;;3.83;;
16139;SDS011;8175;49.326;12.690;2022-08-18T14:32:42;3.92;;;3.63;;
16139;SDS011;8175;49.326;12.690;2022-08-18T14:35:09;4.53;;;3.80;;
16139;SDS011;8175;49.326;12.690;2022-08-18T14:37:36;4.10;;;3.80;;
16139;SDS011;8175;49.326;12.690;2022-08-18T14:40:02;5.13;;;3.80;;
16139;SDS011;8175;49.326;12.690;2022-08-18T14:42:28;4.13;;;3.75;;
16139;SDS011;8175;49.326;12.690;2022-08-18T14:44:54;3.83;;;3.45;;
16139;SDS011;8175;49.326;12.690;2022-08-18T14:47:22;4.65;;;3.47;;
16139;SDS011;8175;49.326;12.690;2022-08-18T14:49:51;3.92;;;3.60;;
16139;SDS011;8175;49.326;12.690;2022-08-18T14:52:18;3.80;;;3.50;;
16139;SDS011;8175;49.326;12.690;2022-08-18T14:54:45;3.90;;;3.60;;
16139;SDS011;8175;49.326;12.690;2022-08-18T14:57:10;4.28;;;3.90;;
16139;SDS011;8175;49.326;12.690;2022-08-18T14:59:37;4.53;;;4.03;;
16139;SDS011;8175;49.326;12.690;2022-08-18T15:02:03;3.50;;;3.30;;
16139;SDS011;8175;49.326;12.690;2022-08-18T15:04:30;4.50;;;4.10;;
16139;SDS011;8175;49.326;12.690;2022-08-18T15:06:56;3.92;;;3.63;;
16139;SDS011;8175;49.326;12.690;2022-08-18T15:09:21;4.15;;;3.85;;
16139;SDS011;8175;49.326;12.690;2022-08-18T15:11:48;3.97;;;3.67;;
16139;SDS011;8175;49.326;12.690;2022-08-18T15:14:15;4.85;;;4.25;;
16139;SDS011;8175;49.326;12.690;2022-08-18T15:16:42;3.72;;;3.42;;
16139;SDS011;8175;49.326;12.690;2022-08-18T15:19:07;5.90;;;3.80;;
16139;SDS011;8175;49.326;12.690;2022-08-18T15:21:33;4.22;;;3.90;;
16139;SDS011;8175;49.326;12.690;2022-08-18T15:24:17;5.03;;;4.50;;
16139;SDS011;8175;49.326;12.690;2022-08-18T15:27:01;6.65;;;4.43;;
16139;SDS011;8175;49.326;12.690;2022-08-18T15:29:27;5.25;;;4.68;;
16139;SDS011;8175;49.326;12.690;2022-08-18T15:31:53;4.60;;;4.20;;
16139;SDS011;8175;49.326;12.690;2022-08-18T15:34:19;4.05;;;3.75;;
16139;SDS011;8175;49.326;12.690;2022-08-18T15:36:45;4.82;;;4.20;;
16139;SDS011;8175;49.326;12.690;2022-08-18T15:39:11;4.18;;;3.83;;
16139;SDS011;8175;49.326;12.690;2022-08-18T15:41:41;5.00;;;4.50;;
16139;SDS011;8175;49.326;12.690;2022-08-18T15:44:10;4.85;;;4.35;;
16139;SDS011;8175;49.326;12.690;2022-08-18T15:46:38;5.00;;;4.60;;
16139;SDS011;8175;49.326;12.690;2022-08-18T15:49:04;4.82;;;4.43;;
16139;SDS011;8175;49.326;12.690;2022-08-18T15:51:32;5.53;;;4.60;;
16139;SDS011;8175;49.326;12.690;2022-08-18T15:54:02;4.50;;;4.15;;
16139;SDS011;8175;49.326;12.690;2022-08-18T15:56:29;4.60;;;4.20;;
16139;SDS011;8175;49.326;12.690;2022-08-18T15:58:55;4.82;;;4.38;;
16139;SDS011;8175;49.326;12.690;2022-08-18T16:01:23;5.43;;;4.93;;
16139;SDS011;8175;49.326;12.690;2022-08-18T16:03:49;5.00;;;4.60;;
16139;SDS011;8175;49.326;12.690;2022-08-18T16:06:19;4.20;;;3.80;;
16139;SDS011;8175;49.326;12.690;2022-08-18T16:08:48;5.75;;;4.05;;
16139;SDS011;8175;49.326;12.690;2022-08-18T16:11:14;4.72;;;4.00;;
16139;SDS011;8175;49.326;12.690;2022-08-18T16:13:43;4.47;;;4.18;;
16139;SDS011;8175;49.326;12.690;2022-08-18T16:16:10;4.82;;;4.53;;
16139;SDS011;8175;49.326;12.690;2022-08-18T16:18:37;7.25;;;4.50;;
16139;SDS011;8175;49.326;12.690;2022-08-18T16:21:04;5.10;;;4.68;;
16139;SDS011;8175;49.326;12.690;2022-08-18T16:23:35;4.90;;;4.50;;
16139;SDS011;8175;49.326;12.690;2022-08-18T16:26:05;4.43;;;4.13;;
16139;SDS011;8175;49.326;12.690;2022-08-18T16:28:31;4.25;;;3.95;;
16139;SDS011;8175;49.326;12.690;2022-08-18T16:30:58;5.88;;;4.30;;
16139;SDS011;8175;49.326;12.690;2022-08-18T16:33:24;5.32;;;4.35;;
16139;SDS011;8175;49.326;12.690;2022-08-18T16:35:50;4.72;;;4.40;;
16139;SDS011;8175;49.326;12.690;2022-08-18T16:38:16;4.53;;;4.22;;
16139;SDS011;8175;49.326;12.690;2022-08-18T16:40:42;5.20;;;4.80;;
16139;SDS011;8175;49.326;12.690;2022-08-18T16:43:09;4.75;;;4.35;;
16139;SDS011;8175;49.326;12.690;2022-08-18T16:45:36;4.80;;;4.40;;
16139;SDS011;8175;49.326;12.690;2022-08-18T16:48:04;4.93;;;4.55;;
16139;SDS011;8175;49.326;12.690;2022-08-18T16:50:32;4.43;;;4.07;;
16139;SDS011;8175;49.326;12.690;2022-08-18T16:52:58;5.22;;;4.82;;
16139;SDS011;8175;49.326;12.690;2022-08-18T16:55:25;4.70;;;4.30;;
16139;SDS011;8175;49.326;12.690;2022-08-18T16:57:51;4.97;;;4.57;;
16139;SDS011;8175;49.326;12.690;2022-08-18T17:00:35;5.18;;;4.78;;
16139;SDS011;8175;49.326;12.690;2022-08-18T17:03:20;4.40;;;4.10;;
16139;SDS011;8175;49.326;12.690;2022-08-18T17:06:06;5.28;;;4.88;;
16139;SDS011;8175;49.326;12.690;2022-08-18T17:08:35;4.43;;;4.13;;
16139;SDS011;8175;49.326;12.690;2022-08-18T17:11:02;5.00;;;4.50;;
16139;SDS011;8175;49.326;12.690;2022-08-18T17:13:29;5.55;;;4.68;;
16139;SDS011;8175;49.326;12.690;2022-08-18T17:15:56;5.70;;;4.70;;
16139;SDS011;8175;49.326;12.690;2022-08-18T17:18:21;6.28;;;5.55;;
16139;SDS011;8175;49.326;12.690;2022-08-18T17:20:48;6.55;;;5.85;;
16139;SDS011;8175;49.326;12.690;2022-08-18T17:23:15;6.88;;;5.97;;
16139;SDS011;8175;49.326;12.690;2022-08-18T17:25:41;6.40;;;6.00;;
16139;SDS011;8175;49.326;12.690;2022-08-18T17:28:07;8.25;;;7.43;;
16139;SDS011;8175;49.326;12.690;2022-08-18T17:30:34;8.77;;;7.70;;
16139;SDS011;8175;49.326;12.690;2022-08-18T17:33:09;8.40;;;7.70;;